createdAt,value
2022-08-18T00:01:16.442Z,20.40
2022-08-18T00:03:56.143Z,20.40
2022-08-18T00:06:29.127Z,20.40
2022-08-18T00:09:00.921Z,20.40
2022-08-18T00:11:40.762Z,20.30
2022-08-18T00:14:21.160Z,20.30
2022-08-18T00:16:52.366Z,20.30
2022-08-18T00:19:45.356Z,20.30
2022-08-18T00:22:14.609Z,20.30
2022-08-18T00:24:47.784Z,20.30
2022-08-18T00:27:21.598Z,20.20
2022-08-18T00:29:52.197Z,20.00
2022-08-18T00:32:23.179Z,19.90
2022-08-18T00:34:52.494Z,19.80
2022-08-18T00:37:21.323Z,20.00
2022-08-18T00:39:52.482Z,20.20
2022-08-18T00:42:29.087Z,20.30
2022-08-18T00:45:02.675Z,20.40
2022-08-18T00:47:42.798Z,20.30
2022-08-18T00:50:16.240Z,20.40
2022-08-18T00:52:51.069Z,20.40
2022-08-18T00:55:23.027Z,20.40
2022-08-18T00:57:55.996Z,20.00
2022-08-18T01:00:24.439Z,20.00
2022-08-18T01:02:57.227Z,19.90
2022-08-18T01:05:33.910Z,19.80
2022-08-18T01:08:03.667Z,19.80
2022-08-18T01:10:35.351Z,19.90
2022-08-18T01:13:04.722Z,19.80
2022-08-18T01:15:33.504Z,19.60
2022-08-18T01:18:21.464Z,19.20
2022-08-18T01:21:16.237Z,19.20
2022-08-18T01:23:47.092Z,19.40
2022-08-18T01:26:16.873Z,19.40
2022-08-18T01:28:46.730Z,19.20
2022-08-18T01:31:34.804Z,19.30
2022-08-18T01:34:04.608Z,19.50
2022-08-18T01:36:37.524Z,19.40
2022-08-18T01:39:08.839Z,19.40
2022-08-18T01:41:37.224Z,19.20
2022-08-18T01:44:09.447Z,19.30
2022-08-18T01:46:37.763Z,19.30
2022-08-18T01:49:07.532Z,19.40
2022-08-18T01:51:40.691Z,19.30
2022-08-18T01:54:13.443Z,19.10
2022-08-18T01:56:43.421Z,19.00
2022-08-18T01:59:15.109Z,19.00
2022-08-18T02:01:50.415Z,18.80
2022-08-18T02:04:41.078Z,18.80
2022-08-18T02:07:12.390Z,18.80
2022-08-18T02:09:44.014Z,19.00
2022-08-18T02:12:13.677Z,19.20
2022-08-18T02:14:43.148Z,19.30
2022-08-18T02:17:13.769Z,19.40
2022-08-18T02:19:44.518Z,19.50
2022-08-18T02:22:16.075Z,19.60
2022-08-18T02:24:46.090Z,19.50
2022-08-18T02:27:16.254Z,19.00
2022-08-18T02:29:44.787Z,18.90
2022-08-18T02:32:13.050Z,19.10
2022-08-18T02:34:42.993Z,19.20
2022-08-18T02:37:15.358Z,19.00
2022-08-18T02:39:46.034Z,18.90
2022-08-18T02:42:14.753Z,18.80
2022-08-18T02:44:43.095Z,18.80
2022-08-18T02:47:12.144Z,18.90
2022-08-18T02:49:40.826Z,18.60
2022-08-18T02:52:10.034Z,18.40
2022-08-18T02:54:38.496Z,18.40
2022-08-18T02:57:11.311Z,18.20
2022-08-18T02:59:41.354Z,18.20
2022-08-18T03:02:10.824Z,18.40
2022-08-18T03:04:39.410Z,18.50
2022-08-18T03:07:09.253Z,18.60
2022-08-18T03:09:37.960Z,18.60
2022-08-18T03:12:08.903Z,18.60
2022-08-18T03:14:40.010Z,18.50
2022-08-18T03:17:10.243Z,18.40
2022-08-18T03:19:39.438Z,18.20
2022-08-18T03:22:27.471Z,18.10
2022-08-18T03:24:58.089Z,18.00
2022-08-18T03:27:28.262Z,18.20
2022-08-18T03:29:56.890Z,18.10
2022-08-18T03:32:27.254Z,18.00
2022-08-18T03:34:55.549Z,17.80
2022-08-18T03:37:23.886Z,17.90
2022-08-18T03:39:53.316Z,17.80
2022-08-18T03:42:22.441Z,17.90
2022-08-18T03:44:52.424Z,18.00
2022-08-18T03:47:21.180Z,18.20
2022-08-18T03:49:50.305Z,18.40
2022-08-18T03:52:21.986Z,18.30
2022-08-18T03:54:51.277Z,18.20
2022-08-18T03:57:20.709Z,18.00
2022-08-18T03:59:50.219Z,17.60
2022-08-18T04:02:21.628Z,17.80
2022-08-18T04:04:51.378Z,18.00
2022-08-18T04:07:19.826Z,18.20
2022-08-18T04:09:48.202Z,18.10
2022-08-18T04:12:17.763Z,18.10
2022-08-18T04:14:49.339Z,17.90
2022-08-18T04:17:23.604Z,17.90
2022-08-18T04:19:52.300Z,17.90
2022-08-18T04:22:20.802Z,17.80
2022-08-18T04:24:50.291Z,17.90
2022-08-18T04:27:19.844Z,17.90
2022-08-18T04:29:48.915Z,17.90
2022-08-18T04:32:17.362Z,17.90
2022-08-18T04:34:47.875Z,18.10
2022-08-18T04:37:16.473Z,18.30
2022-08-18T04:39:45.600Z,18.30
2022-08-18T04:42:14.177Z,18.40
2022-08-18T04:44:42.727Z,18.50
2022-08-18T04:47:11.158Z,18.30
2022-08-18T04:49:39.875Z,17.80
2022-08-18T04:52:40.253Z,17.90
2022-08-18T04:55:11.326Z,17.90
2022-08-18T04:57:42.616Z,18.20
2022-08-18T05:00:13.376Z,18.20
2022-08-18T05:02:42.117Z,18.20
2022-08-18T05:05:11.322Z,18.30
2022-08-18T05:07:46.785Z,18.50
2022-08-18T05:10:18.197Z,18.80
2022-08-18T05:12:49.054Z,19.00
2022-08-18T05:15:18.982Z,19.00
2022-08-18T05:17:50.755Z,18.80
2022-08-18T05:20:20.459Z,18.90
2022-08-18T05:22:51.915Z,19.00
2022-08-18T05:25:20.502Z,19.10
2022-08-18T05:27:49.435Z,19.30
2022-08-18T05:30:21.391Z,19.30
2022-08-18T05:32:53.154Z,19.30
2022-08-18T05:35:26.465Z,19.40
2022-08-18T05:38:10.054Z,19.40
2022-08-18T05:40:38.511Z,19.30
2022-08-18T05:43:08.234Z,19.40
2022-08-18T05:45:36.928Z,19.40
2022-08-18T05:48:05.540Z,19.40
2022-08-18T05:50:38.194Z,19.40
2022-08-18T05:53:15.725Z,19.40
2022-08-18T05:56:12.401Z,19.50
2022-08-18T05:58:45.612Z,19.50
2022-08-18T06:01:18.148Z,19.60
2022-08-18T06:03:52.982Z,19.70
2022-08-18T06:06:25.061Z,19.70
2022-08-18T06:09:04.254Z,19.80
2022-08-18T06:11:32.857Z,19.80
2022-08-18T06:14:12.302Z,19.80
2022-08-18T06:16:53.562Z,19.80
2022-08-18T06:19:37.226Z,19.80
2022-08-18T06:22:16.318Z,19.90
2022-08-18T06:24:53.524Z,19.90
2022-08-18T06:27:31.544Z,19.80
2022-08-18T06:30:09.010Z,19.70
2022-08-18T06:33:04.059Z,19.80
2022-08-18T06:35:37.742Z,19.90
2022-08-18T06:38:45.389Z,20.10
2022-08-18T06:41:40.828Z,20.10
2022-08-18T06:44:10.402Z,20.20
2022-08-18T06:46:45.935Z,20.10
2022-08-18T06:49:26.161Z,20.30
2022-08-18T06:51:57.671Z,20.30
2022-08-18T06:54:31.437Z,20.30
2022-08-18T06:57:00.719Z,20.50
2022-08-18T06:59:31.601Z,20.70
2022-08-18T07:02:21.945Z,20.90
2022-08-18T07:05:06.464Z,21.00
2022-08-18T07:07:40.960Z,21.00
2022-08-18T07:10:34.037Z,20.90
2022-08-18T07:13:19.331Z,20.90
2022-08-18T07:15:49.792Z,20.90
2022-08-18T07:18:26.300Z,21.10
2022-08-18T07:20:57.500Z,21.20
2022-08-18T07:23:30.384Z,21.20
2022-08-18T07:26:08.716Z,21.30
2022-08-18T07:28:39.837Z,21.40
2022-08-18T07:31:25.947Z,21.50
2022-08-18T07:34:00.112Z,21.70
2022-08-18T07:36:33.035Z,21.90
2022-08-18T07:39:08.681Z,21.90
2022-08-18T07:41:44.246Z,21.80
2022-08-18T07:44:19.541Z,21.90
2022-08-18T07:46:59.720Z,21.90
2022-08-18T07:49:33.476Z,21.80
2022-08-18T07:52:23.234Z,21.90
2022-08-18T07:55:07.557Z,22.10
2022-08-18T07:57:47.175Z,22.20
2022-08-18T08:00:40.956Z,22.40
2022-08-18T08:03:24.914Z,22.50
2022-08-18T08:06:02.198Z,22.40
2022-08-18T08:08:35.933Z,22.30
2022-08-18T08:11:17.280Z,22.50
2022-08-18T08:14:02.524Z,22.60
2022-08-18T08:16:40.881Z,22.60
2022-08-18T08:19:42.852Z,22.60
2022-08-18T08:22:30.876Z,22.80
2022-08-18T08:25:22.678Z,22.70
2022-08-18T08:28:11.562Z,22.90
2022-08-18T08:30:48.382Z,23.00
2022-08-18T08:33:28.589Z,23.20
2022-08-18T08:36:04.397Z,23.20
2022-08-18T08:38:44.955Z,23.20
2022-08-18T08:41:20.931Z,23.20
2022-08-18T08:43:58.438Z,23.10
2022-08-18T08:46:31.285Z,23.20
2022-08-18T08:49:08.292Z,23.10
2022-08-18T08:51:44.521Z,23.30
2022-08-18T08:54:19.125Z,23.10
2022-08-18T08:56:50.717Z,23.20
2022-08-18T08:59:22.314Z,23.20
2022-08-18T09:02:01.733Z,23.40
2022-08-18T09:05:04.882Z,23.40
2022-08-18T09:07:45.371Z,23.50
2022-08-18T09:10:50.067Z,23.80
2022-08-18T09:13:40.250Z,23.80
2022-08-18T09:16:22.120Z,23.90
2022-08-18T09:19:14.227Z,23.90
2022-08-18T09:21:48.205Z,24.20
2022-08-18T09:24:28.013Z,24.10
2022-08-18T09:27:25.546Z,24.10
2022-08-18T09:29:57.391Z,24.10
2022-08-18T09:32:44.453Z,24.20
2022-08-18T09:39:06.198Z,23.80
2022-08-18T09:41:45.690Z,23.60
2022-08-18T09:44:58.711Z,23.50
2022-08-18T09:47:59.391Z,23.70
2022-08-18T09:50:55.332Z,23.80
2022-08-18T09:53:55.020Z,23.70
2022-08-18T09:57:16.634Z,23.70
2022-08-18T10:06:20.881Z,23.90
2022-08-18T10:09:26.706Z,24.00
2022-08-18T10:15:40.675Z,23.60
2022-08-18T10:18:39.538Z,23.60
2022-08-18T10:21:17.871Z,23.60
2022-08-18T10:24:03.123Z,23.60
2022-08-18T10:27:26.746Z,23.30
2022-08-18T10:29:59.583Z,23.20
2022-08-18T10:32:54.737Z,22.90
2022-08-18T10:35:59.882Z,22.80
2022-08-18T10:38:49.666Z,22.60
2022-08-18T10:41:30.843Z,22.70
2022-08-18T10:44:10.579Z,22.80
2022-08-18T10:46:51.676Z,23.00
2022-08-18T10:49:26.352Z,23.10
2022-08-18T10:52:17.069Z,23.10
2022-08-18T10:55:20.826Z,23.10
2022-08-18T10:58:19.304Z,23.40
2022-08-18T11:01:01.728Z,23.50
2022-08-18T11:03:52.072Z,23.60
2022-08-18T11:06:26.895Z,24.00
2022-08-18T11:08:58.599Z,24.10
2022-08-18T11:11:38.776Z,24.10
2022-08-18T11:14:24.341Z,23.90
2022-08-18T11:16:59.943Z,23.80
2022-08-18T11:19:28.564Z,23.90
2022-08-18T11:22:01.779Z,23.90
2022-08-18T11:24:34.005Z,23.90
2022-08-18T11:27:09.797Z,24.10
2022-08-18T11:29:44.821Z,24.00
2022-08-18T11:32:21.039Z,24.20
2022-08-18T11:34:53.914Z,24.20
2022-08-18T11:37:51.848Z,24.10
2022-08-18T11:43:29.791Z,23.80
2022-08-18T11:46:16.443Z,23.90
2022-08-18T11:48:51.574Z,24.00
2022-08-18T11:51:24.101Z,24.10
2022-08-18T11:53:59.545Z,24.10
2022-08-18T11:56:31.633Z,24.20
2022-08-18T11:59:06.912Z,24.20
2022-08-18T12:01:42.223Z,24.30
2022-08-18T12:04:37.395Z,24.00
2022-08-18T12:07:11.014Z,24.00
2022-08-18T12:10:17.237Z,23.90
2022-08-18T12:12:35.846Z,23.90
2022-08-18T12:15:25.714Z,23.90
2022-08-18T12:17:58.156Z,24.00
2022-08-18T12:20:26.912Z,24.20
2022-08-18T12:22:58.302Z,24.20
2022-08-18T12:25:28.447Z,24.10
2022-08-18T12:27:56.810Z,24.10
2022-08-18T12:30:25.075Z,24.30
2022-08-18T12:33:00.800Z,24.40
2022-08-18T12:35:41.719Z,24.50
2022-08-18T12:38:12.833Z,24.30
2022-08-18T12:40:44.241Z,24.10
2022-08-18T12:43:13.399Z,24.20
2022-08-18T12:45:42.454Z,24.10
2022-08-18T12:48:11.974Z,24.00
2022-08-18T12:50:54.434Z,24.00
2022-08-18T12:53:59.521Z,24.00
2022-08-18T12:56:32.709Z,24.00
2022-08-18T12:59:05.177Z,23.90
2022-08-18T13:01:34.869Z,23.90
2022-08-18T13:04:12.063Z,23.80
2022-08-18T13:06:59.222Z,23.90
2022-08-18T13:09:35.170Z,23.90
2022-08-18T13:12:20.015Z,23.90
2022-08-18T13:14:50.935Z,24.00
2022-08-18T13:17:30.347Z,24.00
2022-08-18T13:20:14.429Z,23.80
2022-08-18T13:22:43.518Z,23.80
2022-08-18T13:25:33.183Z,23.90
2022-08-18T13:28:05.947Z,24.00
2022-08-18T13:30:35.617Z,24.00
2022-08-18T13:33:34.059Z,24.00
2022-08-18T13:35:55.985Z,23.80
2022-08-18T13:38:27.262Z,23.70
2022-08-18T13:41:00.567Z,23.60
2022-08-18T13:43:34.292Z,23.50
2022-08-18T13:46:05.115Z,23.50
2022-08-18T13:48:37.957Z,23.30
2022-08-18T13:51:08.249Z,23.40
2022-08-18T13:53:50.618Z,23.40
2022-08-18T13:56:31.446Z,23.50
2022-08-18T13:59:01.563Z,23.40
2022-08-18T14:01:44.641Z,23.40
2022-08-18T14:04:22.735Z,23.50
2022-08-18T14:06:57.303Z,23.30
2022-08-18T14:09:37.329Z,23.30
2022-08-18T14:12:21.580Z,23.30
2022-08-18T14:14:55.556Z,23.20
2022-08-18T14:17:26.642Z,23.30
2022-08-18T14:20:14.744Z,23.30
2022-08-18T14:23:01.841Z,23.50
2022-08-18T14:25:49.664Z,23.60
2022-08-18T14:28:18.694Z,23.70
2022-08-18T14:30:55.344Z,23.60
2022-08-18T14:33:34.244Z,23.60
2022-08-18T14:36:14.495Z,23.60
2022-08-18T14:38:43.189Z,23.50
2022-08-18T14:41:14.444Z,23.70
2022-08-18T14:44:12.693Z,23.70
2022-08-18T14:46:35.111Z,23.80
2022-08-18T14:49:03.784Z,23.70
2022-08-18T14:51:33.658Z,23.70
2022-08-18T14:54:02.254Z,23.70
2022-08-18T14:56:33.482Z,23.80
2022-08-18T14:59:07.763Z,23.80
2022-08-18T15:01:42.566Z,23.80
2022-08-18T15:04:18.638Z,23.70
2022-08-18T15:06:56.345Z,23.60
2022-08-18T15:09:26.940Z,23.60
2022-08-18T15:11:58.405Z,23.60
2022-08-18T15:14:32.991Z,23.50
2022-08-18T15:17:11.606Z,23.50
2022-08-18T15:19:58.894Z,23.60
2022-08-18T15:22:47.851Z,23.60
2022-08-18T15:25:34.423Z,23.70
2022-08-18T15:28:03.131Z,23.60
2022-08-18T15:30:32.167Z,23.70
2022-08-18T15:33:03.128Z,23.70
2022-08-18T15:35:32.053Z,23.70
2022-08-18T15:38:05.057Z,23.70
2022-08-18T15:40:41.204Z,23.70
2022-08-18T15:43:10.628Z,23.80
2022-08-18T15:45:58.071Z,23.80
2022-08-18T15:48:29.557Z,23.90
2022-08-18T15:51:08.001Z,23.90
2022-08-18T15:53:44.583Z,23.90
2022-08-18T15:56:16.001Z,23.90
2022-08-18T15:58:49.364Z,23.90
2022-08-18T16:01:30.213Z,23.90
2022-08-18T16:04:02.433Z,23.90
2022-08-18T16:06:33.695Z,23.90
2022-08-18T16:09:04.927Z,23.90
2022-08-18T16:11:33.518Z,23.90
2022-08-18T16:14:01.671Z,23.90
2022-08-18T16:16:35.984Z,23.70
2022-08-18T16:19:07.915Z,23.70
2022-08-18T16:21:39.760Z,23.70
2022-08-18T16:24:09.595Z,23.50
2022-08-18T16:26:38.188Z,23.50
2022-08-18T16:29:06.439Z,23.50
2022-08-18T16:31:37.563Z,23.40
2022-08-18T16:34:07.437Z,23.30
2022-08-18T16:36:36.327Z,23.20
2022-08-18T16:39:04.873Z,23.20
2022-08-18T16:41:35.211Z,23.20
2022-08-18T16:44:03.431Z,23.10
2022-08-18T16:46:35.169Z,23.10
2022-08-18T16:49:08.187Z,23.10
2022-08-18T16:51:38.171Z,23.00
2022-08-18T16:54:06.543Z,23.10
2022-08-18T16:56:35.915Z,23.10
2022-08-18T16:59:22.068Z,23.10
2022-08-18T17:02:07.989Z,23.10
2022-08-18T17:04:36.391Z,23.00
2022-08-18T17:07:07.430Z,23.00
2022-08-18T17:09:37.213Z,23.00
2022-08-18T17:12:06.102Z,23.00
2022-08-18T17:14:37.607Z,23.00
2022-08-18T17:17:07.617Z,23.00
2022-08-18T17:19:37.622Z,22.90
2022-08-18T17:22:08.129Z,22.90
2022-08-18T17:24:42.645Z,22.90
2022-08-18T17:27:27.188Z,22.90
2022-08-18T17:30:03.609Z,22.90
2022-08-18T17:32:39.280Z,22.90
2022-08-18T17:35:13.001Z,22.90
2022-08-18T17:37:49.307Z,22.80
2022-08-18T17:40:22.245Z,22.80
2022-08-18T17:42:53.535Z,22.80
2022-08-18T17:45:24.836Z,22.80
2022-08-18T17:48:00.364Z,22.70
2022-08-18T17:50:52.929Z,22.70
2022-08-18T17:53:23.500Z,22.80
2022-08-18T17:55:59.974Z,22.70
2022-08-18T17:58:38.022Z,22.70
2022-08-18T18:01:06.943Z,22.60
2022-08-18T18:03:35.298Z,22.50
2022-08-18T18:06:10.158Z,22.50
2022-08-18T18:08:59.680Z,22.60
2022-08-18T18:11:31.367Z,22.60
2022-08-18T18:14:01.320Z,22.60
2022-08-18T18:16:35.308Z,22.50
2022-08-18T18:19:13.287Z,22.50
2022-08-18T18:22:00.392Z,22.50
2022-08-18T18:24:34.417Z,22.40
2022-08-18T18:27:03.644Z,22.30
2022-08-18T18:29:38.145Z,22.30
2022-08-18T18:32:23.517Z,22.20
2022-08-18T18:35:13.615Z,22.30
2022-08-18T18:37:51.705Z,22.20
2022-08-18T18:40:32.470Z,22.20
2022-08-18T18:43:22.231Z,22.30
2022-08-18T18:46:18.350Z,22.30
2022-08-18T18:48:54.587Z,22.30
2022-08-18T18:51:33.673Z,22.30
2022-08-18T18:54:16.324Z,22.20
2022-08-18T18:56:51.274Z,22.10
2022-08-18T18:59:35.509Z,22.20
2022-08-18T19:02:34.705Z,22.20
2022-08-18T19:05:13.399Z,22.10
2022-08-18T19:07:54.490Z,21.90
2022-08-18T19:10:30.050Z,21.90
2022-08-18T19:13:12.551Z,21.80
2022-08-18T19:15:57.648Z,21.80
2022-08-18T19:18:29.164Z,21.80
2022-08-18T19:22:04.915Z,21.70
2022-08-18T19:23:56.296Z,21.70
2022-08-18T19:26:29.669Z,21.80
2022-08-18T19:29:13.058Z,21.80
2022-08-18T19:31:48.222Z,21.70
2022-08-18T19:34:22.720Z,21.70
2022-08-18T19:36:59.888Z,21.70
2022-08-18T19:39:38.018Z,21.80
2022-08-18T19:42:10.585Z,21.70
2022-08-18T19:45:00.270Z,21.70
2022-08-18T19:47:42.045Z,21.70
2022-08-18T19:50:16.886Z,21.60
2022-08-18T19:53:13.713Z,21.60
2022-08-18T19:56:09.352Z,21.60
2022-08-18T19:59:26.558Z,21.60
2022-08-18T20:02:18.779Z,21.50
2022-08-18T20:05:04.099Z,21.50
2022-08-18T20:07:57.044Z,21.30
2022-08-18T20:10:59.009Z,21.30
2022-08-18T20:13:38.388Z,21.30
2022-08-18T20:16:28.571Z,21.40
2022-08-18T20:22:56.870Z,21.40
2022-08-18T20:25:46.375Z,21.10
2022-08-18T20:28:33.225Z,21.10
2022-08-18T20:31:13.028Z,21.10
2022-08-18T20:33:48.018Z,21.10
2022-08-18T20:36:30.326Z,21.10
2022-08-18T20:39:02.202Z,21.00
2022-08-18T20:41:47.266Z,21.10
2022-08-18T20:44:38.015Z,21.10
2022-08-18T20:47:25.696Z,21.00
2022-08-18T20:50:10.972Z,21.00
2022-08-18T20:52:47.580Z,21.00
2022-08-18T20:55:31.684Z,21.00
2022-08-18T20:58:05.448Z,21.00
2022-08-18T21:00:42.207Z,21.00
2022-08-18T21:03:15.659Z,21.00
2022-08-18T21:05:47.806Z,20.90
2022-08-18T21:08:27.412Z,20.90
2022-08-18T21:11:00.887Z,20.80
2022-08-18T21:13:31.936Z,20.70
2022-08-18T21:16:01.283Z,20.60
2022-08-18T21:18:34.195Z,20.60
2022-08-18T21:21:09.201Z,20.60
2022-08-18T21:26:40.313Z,20.50
2022-08-18T21:29:14.289Z,20.50
2022-08-18T21:31:45.505Z,20.40
2022-08-18T21:34:19.306Z,20.40
2022-08-18T21:36:55.415Z,20.30
2022-08-18T21:39:26.941Z,20.30
2022-08-18T21:42:06.236Z,20.20
2022-08-18T21:44:42.082Z,20.20
2022-08-18T21:47:21.042Z,20.00
2022-08-18T21:50:17.959Z,19.90
2022-08-18T21:52:53.000Z,20.00
2022-08-18T21:55:27.978Z,19.90
2022-08-18T21:58:09.420Z,19.80
2022-08-18T22:00:39.411Z,19.70
2022-08-18T22:03:19.091Z,19.90
2022-08-18T22:05:58.180Z,20.00
2022-08-18T22:08:30.769Z,20.10
2022-08-18T22:12:01.551Z,19.90
2022-08-18T22:14:30.480Z,19.90
2022-08-18T22:17:35.024Z,20.00
2022-08-18T22:20:40.487Z,20.00
2022-08-18T22:23:43.014Z,19.90
2022-08-18T22:26:14.217Z,20.10
2022-08-18T22:28:55.747Z,20.10
2022-08-18T22:31:29.322Z,20.10
2022-08-18T22:34:00.979Z,20.00
2022-08-18T22:36:39.026Z,20.10
2022-08-18T22:39:10.199Z,20.00
2022-08-18T22:41:38.954Z,20.00
2022-08-18T22:44:10.481Z,19.90
2022-08-18T22:46:40.402Z,19.90
2022-08-18T22:49:08.581Z,19.90
2022-08-18T22:51:37.457Z,20.00
2022-08-18T22:54:08.442Z,20.00
2022-08-18T22:56:38.032Z,20.10
2022-08-18T22:59:14.095Z,20.10
2022-08-18T23:01:49.443Z,20.10
2022-08-18T23:04:20.847Z,20.20
2022-08-18T23:06:52.698Z,20.20
2022-08-18T23:09:24.126Z,20.30
2022-08-18T23:11:53.901Z,20.30
2022-08-18T23:14:22.298Z,20.30
2022-08-18T23:16:52.300Z,20.30
2022-08-18T23:19:22.069Z,20.30
2022-08-18T23:21:51.729Z,20.40
2022-08-18T23:24:21.164Z,20.30
2022-08-18T23:26:50.034Z,20.30
2022-08-18T23:29:19.857Z,20.30
2022-08-18T23:31:48.943Z,20.40
2022-08-18T23:34:22.919Z,20.40
2022-08-18T23:36:56.261Z,20.30
2022-08-18T23:39:24.853Z,20.30
2022-08-18T23:41:54.042Z,20.30
2022-08-18T23:44:27.876Z,20.30
2022-08-18T23:47:00.036Z,20.30
2022-08-18T23:49:31.735Z,20.20
2022-08-18T23:52:01.295Z,20.20
2022-08-18T23:54:32.355Z,20.20
2022-08-18T23:57:03.742Z,20.30
2022-08-18T23:59:32.196Z,20.20
